createdAt,value
2023-04-18T00:01:19.053Z,6.96
2023-04-18T00:03:47.818Z,6.90
2023-04-18T00:06:15.244Z,6.83
2023-04-18T00:08:42.538Z,6.78
2023-04-18T00:11:09.843Z,6.70
2023-04-18T00:13:38.857Z,6.65
2023-04-18T00:16:08.504Z,6.58
2023-04-18T00:18:37.527Z,6.53
2023-04-18T00:21:05.280Z,6.49
2023-04-18T00:23:34.684Z,6.43
2023-04-18T00:26:02.660Z,6.41
2023-04-18T00:28:30.097Z,6.38
2023-04-18T00:30:57.499Z,6.35
2023-04-18T00:33:24.819Z,6.34
2023-04-18T00:35:52.720Z,6.33
2023-04-18T00:38:20.169Z,6.32
2023-04-18T00:40:48.721Z,6.33
2023-04-18T00:43:17.338Z,6.33
2023-04-18T00:45:44.897Z,6.32
2023-04-18T00:48:12.390Z,6.32
2023-04-18T00:50:42.043Z,6.31
2023-04-18T00:53:11.465Z,6.31
2023-04-18T00:55:39.280Z,6.31
2023-04-18T00:58:06.759Z,6.32
2023-04-18T01:00:34.589Z,6.31
2023-04-18T01:03:02.045Z,6.28
2023-04-18T01:05:29.537Z,6.26
2023-04-18T01:08:01.450Z,6.24
2023-04-18T01:10:31.217Z,6.22
2023-04-18T01:13:15.307Z,6.21
2023-04-18T01:15:44.389Z,6.22
2023-04-18T01:18:13.539Z,6.22
2023-04-18T01:20:44.223Z,6.24
2023-04-18T01:23:11.619Z,6.27
2023-04-18T01:25:39.557Z,6.28
2023-04-18T01:28:07.256Z,6.30
2023-04-18T01:30:35.047Z,6.29
2023-04-18T01:33:04.722Z,6.28
2023-04-18T01:35:33.845Z,6.29
2023-04-18T01:38:01.541Z,6.31
2023-04-18T01:40:30.511Z,6.34
2023-04-18T01:42:57.863Z,6.34
2023-04-18T01:45:25.450Z,6.32
2023-04-18T01:47:52.835Z,6.27
2023-04-18T01:50:20.308Z,6.25
2023-04-18T01:52:48.311Z,6.22
2023-04-18T01:55:16.737Z,6.21
2023-04-18T01:57:44.423Z,6.19
2023-04-18T02:00:12.447Z,6.20
2023-04-18T02:02:43.142Z,6.22
2023-04-18T02:05:11.082Z,6.26
2023-04-18T02:07:41.499Z,6.27
2023-04-18T02:10:10.854Z,6.28
2023-04-18T02:12:38.206Z,6.28
2023-04-18T02:15:06.130Z,6.30
2023-04-18T02:17:36.694Z,6.34
2023-04-18T02:20:04.708Z,6.36
2023-04-18T02:22:32.171Z,6.38
2023-04-18T02:25:01.048Z,6.39
2023-04-18T02:27:28.539Z,6.41
2023-04-18T02:29:57.903Z,6.43
2023-04-18T02:32:25.438Z,6.44
2023-04-18T02:34:52.752Z,6.46
2023-04-18T02:37:20.081Z,6.46
2023-04-18T02:39:47.399Z,6.51
2023-04-18T02:42:14.773Z,6.51
2023-04-18T02:44:42.170Z,6.49
2023-04-18T02:47:10.189Z,6.49
2023-04-18T02:49:41.308Z,6.50
2023-04-18T02:52:08.779Z,6.47
2023-04-18T02:54:36.181Z,6.46
2023-04-18T02:57:11.400Z,6.44
2023-04-18T02:59:47.816Z,6.43
2023-04-18T03:02:26.940Z,6.39
2023-04-18T03:04:59.218Z,6.34
2023-04-18T03:07:27.389Z,6.28
2023-04-18T03:09:54.981Z,6.23
2023-04-18T03:12:26.816Z,6.17
2023-04-18T03:14:54.197Z,6.11
2023-04-18T03:17:22.185Z,6.06
2023-04-18T03:19:50.270Z,5.98
2023-04-18T03:22:20.218Z,5.88
2023-04-18T03:24:55.404Z,5.82
2023-04-18T03:27:32.439Z,5.76
2023-04-18T03:30:00.499Z,5.71
2023-04-18T03:32:28.105Z,5.67
2023-04-18T03:34:55.372Z,5.64
2023-04-18T03:37:22.849Z,5.64
2023-04-18T03:39:54.960Z,5.65
2023-04-18T03:42:25.286Z,5.67
2023-04-18T03:44:52.588Z,5.69
2023-04-18T03:47:20.055Z,5.71
2023-04-18T03:49:51.476Z,5.72
2023-04-18T03:52:20.612Z,5.76
2023-04-18T03:54:47.873Z,5.76
2023-04-18T03:57:17.299Z,5.77
2023-04-18T03:59:46.069Z,5.79
2023-04-18T04:02:15.082Z,5.80
2023-04-18T04:04:43.244Z,5.79
2023-04-18T04:07:12.446Z,5.78
2023-04-18T04:09:39.740Z,5.77
2023-04-18T04:12:07.193Z,5.78
2023-04-18T04:14:34.895Z,5.78
2023-04-18T04:17:02.832Z,5.77
2023-04-18T04:19:31.292Z,5.76
2023-04-18T04:22:16.019Z,5.75
2023-04-18T04:24:43.414Z,5.73
2023-04-18T04:27:14.128Z,5.71
2023-04-18T04:29:44.088Z,5.72
2023-04-18T04:32:13.355Z,5.72
2023-04-18T04:34:42.013Z,5.75
2023-04-18T04:37:14.384Z,5.76
2023-04-18T04:39:57.345Z,5.80
2023-04-18T04:42:56.686Z,5.83
2023-04-18T04:45:30.588Z,5.85
2023-04-18T04:47:57.936Z,5.87
2023-04-18T04:50:25.941Z,5.91
2023-04-18T04:52:53.225Z,5.95
2023-04-18T04:55:20.667Z,6.01
2023-04-18T04:57:48.210Z,6.03
2023-04-18T05:00:30.292Z,6.07
2023-04-18T05:02:58.007Z,6.13
2023-04-18T05:05:27.126Z,6.18
2023-04-18T05:07:55.043Z,6.21
2023-04-18T05:10:22.414Z,6.26
2023-04-18T05:12:49.785Z,6.34
2023-04-18T05:15:17.246Z,6.40
2023-04-18T05:17:44.750Z,6.50
2023-04-18T05:20:12.345Z,6.59
2023-04-18T05:22:40.089Z,6.70
2023-04-18T05:25:08.571Z,6.90
2023-04-18T05:27:35.869Z,7.44
2023-04-18T05:30:03.290Z,8.14
2023-04-18T05:32:30.720Z,8.91
2023-04-18T05:34:58.028Z,9.57
2023-04-18T05:37:25.741Z,10.12
2023-04-18T05:39:53.039Z,10.79
2023-04-18T05:42:20.387Z,11.01
2023-04-18T05:44:47.620Z,11.12
2023-04-18T05:47:14.954Z,11.17
2023-04-18T05:49:42.280Z,11.14
2023-04-18T05:52:09.724Z,11.02
2023-04-18T05:54:36.965Z,10.85
2023-04-18T05:57:04.769Z,10.74
2023-04-18T05:59:32.208Z,10.56
2023-04-18T06:01:59.669Z,10.39
2023-04-18T06:04:27.164Z,10.38
2023-04-18T06:06:54.545Z,10.47
2023-04-18T06:09:21.886Z,10.87
2023-04-18T06:11:49.111Z,11.72
2023-04-18T06:14:16.529Z,12.84
2023-04-18T06:16:45.235Z,13.88
2023-04-18T06:19:12.448Z,14.66
2023-04-18T06:21:42.359Z,15.46
2023-04-18T06:24:09.995Z,15.86
2023-04-18T06:26:37.474Z,16.09
2023-04-18T06:29:04.751Z,16.22
2023-04-18T06:31:32.092Z,16.52
2023-04-18T06:33:59.308Z,16.18
2023-04-18T06:36:27.979Z,16.40
2023-04-18T06:38:55.480Z,17.22
2023-04-18T06:41:23.266Z,17.78
2023-04-18T06:44:02.595Z,17.51
2023-04-18T06:46:31.517Z,17.70
2023-04-18T06:48:59.135Z,17.16
2023-04-18T06:51:26.595Z,16.38
2023-04-18T06:53:54.120Z,15.44
2023-04-18T06:56:21.550Z,14.99
2023-04-18T06:58:49.643Z,14.62
2023-04-18T07:01:17.067Z,14.34
2023-04-18T07:03:44.585Z,13.95
2023-04-18T07:06:12.113Z,13.96
2023-04-18T07:08:39.496Z,13.92
2023-04-18T07:11:07.202Z,13.98
2023-04-18T07:13:34.421Z,13.97
2023-04-18T07:16:01.928Z,13.96
2023-04-18T07:18:37.161Z,14.17
2023-04-18T07:21:08.090Z,14.19
2023-04-18T07:23:36.052Z,13.73
2023-04-18T07:26:03.770Z,13.54
2023-04-18T07:28:32.339Z,13.22
2023-04-18T07:31:00.000Z,12.82
2023-04-18T07:33:27.378Z,12.61
2023-04-18T07:35:54.670Z,12.27
2023-04-18T07:38:21.902Z,12.01
2023-04-18T07:40:59.834Z,11.69
2023-04-18T07:43:27.256Z,11.55
2023-04-18T07:45:54.921Z,11.31
2023-04-18T07:48:31.190Z,11.32
2023-04-18T07:50:58.868Z,11.35
2023-04-18T07:53:26.368Z,11.57
2023-04-18T07:55:55.009Z,11.71
2023-04-18T07:58:22.451Z,11.94
2023-04-18T08:00:49.745Z,11.91
2023-04-18T08:03:17.241Z,11.83
2023-04-18T08:05:44.625Z,11.75
2023-04-18T08:08:12.709Z,11.89
2023-04-18T08:10:40.126Z,12.39
2023-04-18T08:13:07.753Z,12.65
2023-04-18T08:15:35.016Z,12.72
2023-04-18T08:18:02.610Z,12.64
2023-04-18T08:20:30.101Z,12.80
2023-04-18T08:23:07.472Z,13.09
2023-04-18T08:25:36.840Z,13.26
2023-04-18T08:28:04.751Z,13.54
2023-04-18T08:30:32.276Z,13.36
2023-04-18T08:33:00.922Z,13.12
2023-04-18T08:35:28.506Z,12.86
2023-04-18T08:37:55.979Z,13.14
2023-04-18T08:40:23.525Z,13.25
2023-04-18T08:42:53.287Z,13.12
2023-04-18T08:45:21.187Z,12.91
2023-04-18T08:47:48.641Z,12.64
2023-04-18T08:50:17.068Z,12.63
2023-04-18T08:52:50.452Z,12.50
2023-04-18T08:55:19.369Z,12.34
2023-04-18T08:57:47.873Z,12.21
2023-04-18T09:00:18.335Z,12.19
2023-04-18T09:02:47.581Z,12.13
2023-04-18T09:05:19.258Z,12.20
2023-04-18T09:07:48.182Z,12.02
2023-04-18T09:10:33.594Z,12.02
2023-04-18T09:13:05.976Z,12.09
2023-04-18T09:15:33.346Z,12.28
2023-04-18T09:18:03.465Z,12.45
2023-04-18T09:20:38.311Z,12.53
2023-04-18T09:23:16.578Z,12.60
2023-04-18T09:25:48.992Z,12.58
2023-04-18T09:28:29.256Z,12.47
2023-04-18T09:30:57.505Z,12.44
2023-04-18T09:33:35.018Z,12.40
2023-04-18T09:36:21.582Z,12.32
2023-04-18T09:38:50.893Z,12.38
2023-04-18T09:41:21.416Z,12.24
2023-04-18T09:43:49.262Z,12.21
2023-04-18T09:46:18.187Z,12.11
2023-04-18T09:48:45.918Z,12.00
2023-04-18T09:51:17.019Z,11.89
2023-04-18T09:53:45.340Z,11.92
2023-04-18T09:56:23.609Z,11.80
2023-04-18T09:58:57.465Z,11.83
2023-04-18T10:01:29.533Z,11.93
2023-04-18T10:03:58.123Z,11.87
2023-04-18T10:06:27.732Z,11.94
2023-04-18T10:08:56.304Z,12.18
2023-04-18T10:11:24.800Z,12.37
2023-04-18T10:13:57.921Z,12.52
2023-04-18T10:16:26.459Z,12.72
2023-04-18T10:18:53.854Z,12.89
2023-04-18T10:21:22.302Z,13.00
2023-04-18T10:23:50.657Z,13.40
2023-04-18T10:26:18.044Z,13.69
2023-04-18T10:28:53.849Z,13.98
2023-04-18T10:31:23.043Z,14.01
2023-04-18T10:34:18.479Z,14.14
2023-04-18T10:37:04.803Z,14.00
2023-04-18T10:39:51.360Z,14.28
2023-04-18T10:42:18.763Z,14.31
2023-04-18T10:45:22.419Z,14.10
2023-04-18T10:47:50.293Z,14.00
2023-04-18T10:50:18.103Z,13.82
2023-04-18T10:52:45.495Z,13.59
2023-04-18T10:55:24.732Z,13.35
2023-04-18T10:57:52.197Z,13.35
2023-04-18T11:00:22.041Z,13.29
2023-04-18T11:03:00.809Z,13.11
2023-04-18T11:05:29.576Z,12.91
2023-04-18T11:07:57.019Z,12.96
2023-04-18T11:10:27.068Z,13.19
2023-04-18T11:12:55.612Z,13.28
2023-04-18T11:15:25.045Z,13.28
2023-04-18T11:18:10.519Z,13.29
2023-04-18T11:20:47.792Z,13.21
2023-04-18T11:23:21.778Z,13.00
2023-04-18T11:25:54.760Z,12.84
2023-04-18T11:28:22.913Z,12.67
2023-04-18T11:30:50.219Z,12.52
2023-04-18T11:33:17.598Z,12.26
2023-04-18T11:35:46.503Z,12.02
2023-04-18T11:38:16.573Z,11.90
2023-04-18T11:40:51.322Z,11.92
2023-04-18T11:43:25.981Z,11.92
2023-04-18T11:45:57.104Z,12.02
2023-04-18T11:48:25.266Z,12.11
2023-04-18T11:50:52.489Z,12.24
2023-04-18T11:53:37.222Z,12.37
2023-04-18T11:56:05.379Z,12.49
2023-04-18T11:58:37.045Z,12.52
2023-04-18T12:01:36.849Z,12.61
2023-04-18T12:04:06.241Z,12.97
2023-04-18T12:06:50.791Z,13.21
2023-04-18T12:09:19.352Z,13.36
2023-04-18T12:12:06.971Z,13.32
2023-04-18T12:14:36.340Z,13.33
2023-04-18T12:17:04.246Z,13.34
2023-04-18T12:19:33.165Z,13.46
2023-04-18T12:22:03.526Z,13.48
2023-04-18T12:24:32.732Z,13.45
2023-04-18T12:27:00.469Z,13.33
2023-04-18T12:29:29.493Z,13.35
2023-04-18T12:31:57.106Z,13.24
2023-04-18T12:34:24.437Z,13.22
2023-04-18T12:36:52.732Z,12.99
2023-04-18T12:39:20.106Z,12.80
2023-04-18T12:41:49.668Z,12.68
2023-04-18T12:44:17.686Z,12.61
2023-04-18T12:46:48.476Z,12.62
2023-04-18T12:49:16.187Z,12.44
2023-04-18T12:51:44.005Z,12.35
2023-04-18T12:54:11.577Z,12.22
2023-04-18T12:56:39.037Z,12.20
2023-04-18T12:59:06.282Z,12.03
2023-04-18T13:01:33.618Z,12.04
2023-04-18T13:04:11.832Z,11.97
2023-04-18T13:06:40.834Z,11.88
2023-04-18T13:09:08.516Z,11.68
2023-04-18T13:11:35.892Z,11.67
2023-04-18T13:14:03.127Z,11.55
2023-04-18T13:16:30.440Z,11.61
2023-04-18T13:19:00.772Z,11.66
2023-04-18T13:21:28.556Z,11.73
2023-04-18T13:23:55.897Z,11.83
2023-04-18T13:26:23.186Z,11.92
2023-04-18T13:28:50.614Z,11.97
2023-04-18T13:31:17.861Z,11.97
2023-04-18T13:33:45.220Z,12.03
2023-04-18T13:36:12.573Z,12.13
2023-04-18T13:38:40.250Z,12.14
2023-04-18T13:41:12.899Z,12.16
2023-04-18T13:43:41.179Z,12.07
2023-04-18T13:46:08.503Z,11.97
2023-04-18T13:48:35.947Z,11.82
2023-04-18T13:51:03.534Z,11.73
2023-04-18T13:53:31.250Z,11.62
2023-04-18T13:55:58.973Z,11.52
2023-04-18T13:58:26.310Z,11.47
2023-04-18T14:00:54.289Z,11.37
2023-04-18T14:03:21.666Z,11.36
2023-04-18T14:05:48.974Z,11.32
2023-04-18T14:08:16.266Z,11.30
2023-04-18T14:10:43.579Z,11.20
2023-04-18T14:13:10.968Z,11.12
2023-04-18T14:15:38.230Z,11.06
2023-04-18T14:18:05.648Z,11.01
2023-04-18T14:20:35.175Z,10.88
2023-04-18T14:23:02.442Z,10.83
2023-04-18T14:25:30.509Z,10.84
2023-04-18T14:28:09.939Z,10.77
2023-04-18T14:30:38.627Z,10.68
2023-04-18T14:33:06.505Z,10.65
2023-04-18T14:35:33.951Z,10.60
2023-04-18T14:38:01.350Z,10.58
2023-04-18T14:40:29.512Z,10.50
2023-04-18T14:42:58.260Z,10.52
2023-04-18T14:45:25.557Z,10.51
2023-04-18T14:47:54.046Z,10.47
2023-04-18T14:50:21.542Z,10.44
2023-04-18T14:52:48.882Z,10.46
2023-04-18T14:55:16.278Z,10.39
2023-04-18T14:57:43.606Z,10.34
2023-04-18T15:00:12.196Z,10.29
2023-04-18T15:02:40.061Z,10.23
2023-04-18T15:05:08.871Z,10.14
2023-04-18T15:07:38.369Z,10.11
2023-04-18T15:10:06.409Z,10.06
2023-04-18T15:12:33.757Z,10.05
2023-04-18T15:15:01.037Z,10.02
2023-04-18T15:17:28.775Z,10.02
2023-04-18T15:19:55.979Z,10.03
2023-04-18T15:22:23.436Z,10.04
2023-04-18T15:24:51.015Z,10.06
2023-04-18T15:27:18.260Z,10.10
2023-04-18T15:29:45.822Z,10.10
2023-04-18T15:32:14.882Z,10.14
2023-04-18T15:34:42.167Z,10.13
2023-04-18T15:37:09.899Z,10.14
2023-04-18T15:39:37.473Z,10.15
2023-04-18T15:42:04.892Z,10.06
2023-04-18T15:44:32.199Z,10.00
2023-04-18T15:47:01.968Z,10.00
2023-04-18T15:49:29.271Z,9.98
2023-04-18T15:51:57.243Z,9.98
2023-04-18T15:54:24.505Z,9.96
2023-04-18T15:56:52.023Z,9.91
2023-04-18T15:59:19.389Z,9.87
2023-04-18T16:01:46.672Z,9.86
2023-04-18T16:04:14.315Z,9.85
2023-04-18T16:06:42.148Z,9.86
2023-04-18T16:09:10.244Z,9.87
2023-04-18T16:11:37.511Z,9.93
2023-04-18T16:14:04.816Z,9.97
2023-04-18T16:16:32.362Z,10.02
2023-04-18T16:18:59.701Z,10.10
2023-04-18T16:21:28.622Z,10.17
2023-04-18T16:23:56.005Z,10.25
2023-04-18T16:26:25.475Z,10.34
2023-04-18T16:28:52.749Z,10.39
2023-04-18T16:31:20.095Z,10.43
2023-04-18T16:33:47.441Z,10.45
2023-04-18T16:36:14.803Z,10.47
2023-04-18T16:38:42.074Z,10.47
2023-04-18T16:41:09.678Z,10.49
2023-04-18T16:43:38.296Z,10.52
2023-04-18T16:46:06.057Z,10.52
2023-04-18T16:48:33.543Z,10.53
2023-04-18T16:51:00.881Z,10.49
2023-04-18T16:53:28.275Z,10.41
2023-04-18T16:55:55.613Z,10.37
2023-04-18T16:58:23.865Z,10.33
2023-04-18T17:00:51.448Z,10.27
2023-04-18T17:03:18.866Z,10.19
2023-04-18T17:05:46.889Z,10.19
2023-04-18T17:08:14.089Z,10.14
2023-04-18T17:10:41.453Z,10.10
2023-04-18T17:13:08.686Z,10.09
2023-04-18T17:15:36.886Z,10.07
2023-04-18T17:18:04.456Z,10.07
2023-04-18T17:20:31.805Z,10.06
2023-04-18T17:22:59.201Z,10.07
2023-04-18T17:25:26.504Z,10.05
2023-04-18T17:27:53.804Z,10.03
2023-04-18T17:30:21.260Z,10.05
2023-04-18T17:32:49.550Z,10.05
2023-04-18T17:35:17.133Z,10.07
2023-04-18T17:37:44.480Z,10.03
2023-04-18T17:40:12.357Z,10.05
2023-04-18T17:42:39.870Z,10.02
2023-04-18T17:45:08.888Z,10.03
2023-04-18T17:47:37.033Z,10.02
2023-04-18T17:50:05.090Z,9.98
2023-04-18T17:52:32.823Z,9.92
2023-04-18T17:55:02.078Z,9.90
2023-04-18T17:57:31.073Z,9.85
2023-04-18T17:59:58.295Z,9.84
2023-04-18T18:02:25.756Z,9.81
2023-04-18T18:04:53.254Z,9.77
2023-04-18T18:07:20.586Z,9.75
2023-04-18T18:09:47.818Z,9.76
2023-04-18T18:12:15.123Z,9.74
2023-04-18T18:14:42.409Z,9.73
2023-04-18T18:17:09.721Z,9.73
2023-04-18T18:19:37.115Z,9.71
2023-04-18T18:22:04.512Z,9.71
2023-04-18T18:24:31.819Z,9.71
2023-04-18T18:26:59.359Z,9.70
2023-04-18T18:29:26.657Z,9.69
2023-04-18T18:31:53.960Z,9.69
2023-04-18T18:34:21.940Z,9.68
2023-04-18T18:36:49.258Z,9.63
2023-04-18T18:39:16.914Z,9.60
2023-04-18T18:41:44.369Z,9.60
2023-04-18T18:44:12.560Z,9.56
2023-04-18T18:46:41.102Z,9.49
2023-04-18T18:49:10.276Z,9.43
2023-04-18T18:51:37.581Z,9.36
2023-04-18T18:54:04.823Z,9.30
2023-04-18T18:56:32.138Z,9.28
2023-04-18T18:58:59.379Z,9.26
2023-04-18T19:01:26.702Z,9.22
2023-04-18T19:03:54.131Z,9.19
2023-04-18T19:06:21.501Z,9.15
2023-04-18T19:08:48.675Z,9.13
2023-04-18T19:11:16.673Z,9.09
2023-04-18T19:13:43.934Z,9.07
2023-04-18T19:16:11.466Z,9.05
2023-04-18T19:18:39.052Z,9.03
2023-04-18T19:21:06.340Z,8.98
2023-04-18T19:23:33.583Z,8.94
2023-04-18T19:26:00.860Z,8.91
2023-04-18T19:28:28.191Z,8.90
2023-04-18T19:30:55.589Z,8.87
2023-04-18T19:33:25.370Z,8.84
2023-04-18T19:35:52.611Z,8.83
2023-04-18T19:38:20.182Z,8.81
2023-04-18T19:40:47.604Z,8.79
2023-04-18T19:43:14.983Z,8.78
2023-04-18T19:45:42.354Z,8.73
2023-04-18T19:48:09.699Z,8.72
2023-04-18T19:50:40.792Z,8.65
2023-04-18T19:53:08.570Z,8.58
2023-04-18T19:55:35.909Z,8.53
2023-04-18T19:58:03.364Z,8.47
2023-04-18T20:00:30.821Z,8.46
2023-04-18T20:02:59.657Z,8.45
2023-04-18T20:05:27.071Z,8.44
2023-04-18T20:07:54.415Z,8.45
2023-04-18T20:10:22.584Z,8.41
2023-04-18T20:12:50.255Z,8.42
2023-04-18T20:15:17.697Z,8.41
2023-04-18T20:17:45.093Z,8.38
2023-04-18T20:20:13.425Z,8.37
2023-04-18T20:22:42.172Z,8.35
2023-04-18T20:25:09.465Z,8.34
2023-04-18T20:27:36.756Z,8.34
2023-04-18T20:30:04.931Z,8.34
2023-04-18T20:32:32.606Z,8.36
2023-04-18T20:35:00.362Z,8.40
2023-04-18T20:37:28.060Z,8.42
2023-04-18T20:39:56.216Z,8.44
2023-04-18T20:42:24.028Z,8.45
2023-04-18T20:44:51.690Z,8.48
2023-04-18T20:47:19.073Z,8.49
2023-04-18T20:49:46.622Z,8.48
2023-04-18T20:52:14.738Z,8.49
2023-04-18T20:54:42.165Z,8.50
2023-04-18T20:57:09.574Z,8.50
2023-04-18T20:59:39.935Z,8.51
2023-04-18T21:02:08.531Z,8.53
2023-04-18T21:04:36.746Z,8.55
2023-04-18T21:07:04.244Z,8.55
2023-04-18T21:09:36.742Z,8.56
2023-04-18T21:12:04.551Z,8.57
2023-04-18T21:14:31.849Z,8.56
2023-04-18T21:16:59.357Z,8.55
2023-04-18T21:19:26.710Z,8.56
2023-04-18T21:21:54.050Z,8.56
2023-04-18T21:24:21.311Z,8.58
2023-04-18T21:26:48.572Z,8.58
2023-04-18T21:29:16.110Z,8.59
2023-04-18T21:31:43.513Z,8.61
2023-04-18T21:34:11.621Z,8.63
2023-04-18T21:36:40.454Z,8.61
2023-04-18T21:39:08.679Z,8.63
2023-04-18T21:41:36.170Z,8.64
2023-04-18T21:44:03.770Z,8.65
2023-04-18T21:46:31.030Z,8.65
2023-04-18T21:48:58.285Z,8.64
2023-04-18T21:51:25.599Z,8.64
2023-04-18T21:53:53.187Z,8.64
2023-04-18T21:56:20.473Z,8.63
2023-04-18T21:58:48.089Z,8.61
2023-04-18T22:01:15.331Z,8.56
2023-04-18T22:03:42.884Z,8.57
2023-04-18T22:06:10.748Z,8.57
2023-04-18T22:08:38.040Z,8.56
2023-04-18T22:11:05.529Z,8.55
2023-04-18T22:13:36.021Z,8.54
2023-04-18T22:16:04.235Z,8.50
2023-04-18T22:18:35.252Z,8.48
2023-04-18T22:21:04.182Z,8.48
2023-04-18T22:23:31.812Z,8.45
2023-04-18T22:25:58.968Z,8.44
2023-04-18T22:28:28.351Z,8.42
2023-04-18T22:30:55.718Z,8.42
2023-04-18T22:33:23.253Z,8.37
2023-04-18T22:35:50.640Z,8.36
2023-04-18T22:38:17.959Z,8.34
2023-04-18T22:40:45.142Z,8.34
2023-04-18T22:43:12.420Z,8.33
2023-04-18T22:45:39.766Z,8.33
2023-04-18T22:48:11.819Z,8.34
2023-04-18T22:50:42.985Z,8.33
2023-04-18T22:53:15.472Z,8.30
2023-04-18T22:55:44.570Z,8.28
2023-04-18T22:58:12.472Z,8.24
2023-04-18T23:00:39.905Z,8.24
2023-04-18T23:03:07.351Z,8.24
2023-04-18T23:05:35.044Z,8.22
2023-04-18T23:08:02.323Z,8.22
2023-04-18T23:10:29.715Z,8.20
2023-04-18T23:12:57.006Z,8.18
2023-04-18T23:15:24.497Z,8.17
2023-04-18T23:17:53.379Z,8.19
2023-04-18T23:20:21.729Z,8.20
2023-04-18T23:22:52.072Z,8.19
2023-04-18T23:25:22.468Z,8.18
2023-04-18T23:27:49.742Z,8.15
2023-04-18T23:30:17.556Z,8.15
2023-04-18T23:32:45.419Z,8.15
2023-04-18T23:35:12.770Z,8.13
2023-04-18T23:37:40.173Z,8.14
2023-04-18T23:40:08.248Z,8.14
2023-04-18T23:42:36.173Z,8.13
2023-04-18T23:45:04.398Z,8.13
2023-04-18T23:47:31.984Z,8.14
2023-04-18T23:49:59.309Z,8.13
2023-04-18T23:52:26.602Z,8.13
2023-04-18T23:54:53.840Z,8.14
2023-04-18T23:57:21.048Z,8.13
2023-04-18T23:59:48.291Z,8.13
